createdAt,value
2023-01-08T00:02:54.315Z,17.86
2023-01-08T00:06:01.380Z,17.67
2023-01-08T00:09:03.605Z,17.51
2023-01-08T00:12:09.322Z,17.65
2023-01-08T00:15:11.980Z,17.75
2023-01-08T00:18:14.772Z,17.65
2023-01-08T00:21:16.951Z,17.58
2023-01-08T00:24:37.581Z,17.74
2023-01-08T00:28:12.271Z,17.82
2023-01-08T00:31:15.764Z,17.77
2023-01-08T00:37:56.612Z,17.68
2023-01-08T00:40:58.829Z,17.64
2023-01-08T00:44:09.378Z,17.43
2023-01-08T00:47:11.620Z,17.40
2023-01-08T00:50:14.518Z,17.51
2023-01-08T00:53:24.193Z,17.23
2023-01-08T00:56:29.534Z,17.19
2023-01-08T00:59:35.752Z,17.28
2023-01-08T01:02:42.319Z,17.33
2023-01-08T01:05:44.414Z,17.38
2023-01-08T01:08:47.051Z,17.34
2023-01-08T01:11:53.334Z,17.24
2023-01-08T01:14:55.919Z,17.41
2023-01-08T01:17:58.399Z,17.43
2023-01-08T01:21:01.412Z,17.33
2023-01-08T01:24:06.199Z,17.34
2023-01-08T01:27:09.429Z,17.34
2023-01-08T01:30:12.457Z,17.31
2023-01-08T01:33:15.746Z,17.35
2023-01-08T01:36:20.217Z,17.40
2023-01-08T01:39:23.464Z,17.20
2023-01-08T01:42:41.120Z,17.27
2023-01-08T01:45:44.008Z,16.79
2023-01-08T01:48:48.759Z,17.14
2023-01-08T01:51:56.464Z,16.07
2023-01-08T01:55:01.106Z,16.30
2023-01-08T01:58:16.851Z,16.55
2023-01-08T02:01:20.180Z,16.55
2023-01-08T02:04:22.839Z,16.62
2023-01-08T02:08:04.068Z,16.49
2023-01-08T02:11:30.483Z,16.32
2023-01-08T02:14:58.346Z,16.28
2023-01-08T02:18:03.978Z,16.18
2023-01-08T02:21:13.674Z,15.84
2023-01-08T02:25:03.421Z,16.29
2023-01-08T02:28:11.351Z,16.25
2023-01-08T02:31:16.328Z,16.42
2023-01-08T02:34:18.944Z,16.47
2023-01-08T02:37:21.762Z,16.35
2023-01-08T02:40:33.562Z,16.22
2023-01-08T02:43:45.838Z,16.29
2023-01-08T02:46:52.469Z,15.78
2023-01-08T02:50:19.777Z,16.01
2023-01-08T02:53:27.116Z,15.58
2023-01-08T02:56:37.541Z,15.63
2023-01-08T02:59:41.927Z,15.57
2023-01-08T03:02:45.354Z,15.68
2023-01-08T03:05:53.391Z,15.54
2023-01-08T03:08:56.396Z,14.78
2023-01-08T03:12:11.370Z,15.68
2023-01-08T03:15:21.971Z,15.53
2023-01-08T03:18:41.895Z,15.77
2023-01-08T03:21:46.977Z,16.09
2023-01-08T03:24:51.694Z,16.15
2023-01-08T03:27:58.803Z,15.87
2023-01-08T03:31:02.835Z,16.49
2023-01-08T03:34:07.216Z,16.36
2023-01-08T03:37:11.765Z,16.48
2023-01-08T03:40:21.708Z,16.72
2023-01-08T03:43:24.056Z,16.83
2023-01-08T03:46:33.416Z,16.82
2023-01-08T03:49:36.908Z,16.84
2023-01-08T03:52:39.786Z,16.75
2023-01-08T03:55:42.393Z,16.75
2023-01-08T03:58:45.193Z,16.97
2023-01-08T04:01:47.587Z,16.79
2023-01-08T04:04:50.507Z,16.86
2023-01-08T04:07:58.599Z,16.29
2023-01-08T05:11:36.065Z,17.21
2023-01-08T05:14:40.533Z,17.16
2023-01-08T05:17:42.772Z,17.27
2023-01-08T05:20:45.683Z,17.13
2023-01-08T05:23:48.464Z,17.03
2023-01-08T05:26:51.211Z,16.80
2023-01-08T05:29:53.476Z,16.82
2023-01-08T05:32:56.696Z,16.75
2023-01-08T05:35:58.710Z,16.68
2023-01-08T05:39:01.463Z,16.29
2023-01-08T05:42:04.669Z,16.36
2023-01-08T05:45:08.687Z,16.39
2023-01-08T05:48:10.719Z,16.70
2023-01-08T05:51:13.896Z,16.86
2023-01-08T05:54:16.674Z,16.82
2023-01-08T05:57:19.878Z,16.79
2023-01-08T06:00:22.798Z,16.25
2023-01-08T06:03:26.789Z,16.26
2023-01-08T06:06:28.749Z,15.90
2023-01-08T06:09:31.422Z,15.67
2023-01-08T06:12:33.840Z,15.90
2023-01-08T06:15:39.643Z,15.81
2023-01-08T06:18:41.688Z,16.01
2023-01-08T06:21:44.817Z,16.08
2023-01-08T06:24:47.471Z,16.25
2023-01-08T06:27:54.023Z,16.32
2023-01-08T06:31:03.556Z,16.69
2023-01-08T06:34:06.029Z,16.86
2023-01-08T06:37:08.343Z,16.93
2023-01-08T06:40:11.534Z,16.94
2023-01-08T06:43:14.601Z,16.97
2023-01-08T06:46:17.369Z,16.72
2023-01-08T06:49:20.429Z,16.75
2023-01-08T06:52:24.024Z,16.76
2023-01-08T06:55:27.651Z,16.79
2023-01-08T06:58:31.141Z,16.66
2023-01-08T07:01:33.489Z,16.87
2023-01-08T07:04:36.107Z,16.75
2023-01-08T07:07:38.309Z,16.77
2023-01-08T07:10:41.808Z,16.82
2023-01-08T07:13:45.059Z,16.62
2023-01-08T07:16:48.184Z,16.62
2023-01-08T07:19:50.505Z,16.35
2023-01-08T07:22:53.435Z,16.29
2023-01-08T07:26:01.625Z,16.28
2023-01-08T07:29:06.939Z,16.33
2023-01-08T07:32:09.091Z,16.53
2023-01-08T07:35:11.819Z,16.45
2023-01-08T07:38:14.756Z,16.66
2023-01-08T07:41:18.036Z,16.29
2023-01-08T07:44:20.496Z,16.41
2023-01-08T07:47:23.224Z,16.12
2023-01-08T07:50:26.400Z,15.33
2023-01-08T07:53:29.668Z,15.58
2023-01-08T07:56:32.029Z,15.27
2023-01-08T07:59:34.502Z,14.95
2023-01-08T08:02:36.723Z,15.14
2023-01-08T08:05:39.720Z,15.29
2023-01-08T08:08:42.512Z,15.30
2023-01-08T08:11:45.142Z,15.43
2023-01-08T08:14:47.344Z,15.88
2023-01-08T08:17:50.609Z,16.02
2023-01-08T08:20:52.907Z,15.71
2023-01-08T08:23:56.778Z,15.34
2023-01-08T08:26:59.132Z,15.36
2023-01-08T08:30:02.338Z,15.77
2023-01-08T08:33:06.883Z,15.94
2023-01-08T08:36:09.997Z,15.50
2023-01-08T08:39:12.559Z,15.83
2023-01-08T08:42:15.740Z,15.53
2023-01-08T08:45:18.033Z,15.37
2023-01-08T08:48:20.662Z,14.72
2023-01-08T08:51:22.986Z,14.46
2023-01-08T08:54:26.070Z,15.33
2023-01-08T08:57:28.276Z,16.17
2023-01-08T09:00:31.246Z,16.26
2023-01-08T09:03:35.158Z,16.18
2023-01-08T09:06:38.168Z,16.41
2023-01-08T09:09:40.589Z,16.35
2023-01-08T09:12:43.292Z,16.24
2023-01-08T09:15:45.189Z,16.28
2023-01-08T09:18:49.978Z,16.45
2023-01-08T09:21:51.996Z,16.76
2023-01-08T09:24:55.338Z,16.77
2023-01-08T09:28:01.598Z,16.90
2023-01-08T09:31:04.976Z,16.79
2023-01-08T09:34:09.641Z,16.92
2023-01-08T09:37:13.084Z,17.03
2023-01-08T09:40:17.396Z,17.06
2023-01-08T09:43:24.129Z,16.96
2023-01-08T09:46:31.205Z,15.83
2023-01-08T09:49:42.185Z,15.84
2023-01-08T09:52:44.533Z,15.68
2023-01-08T09:56:09.280Z,16.36
2023-01-08T09:59:18.616Z,15.73
2023-01-08T10:02:26.626Z,16.00
2023-01-08T10:05:30.957Z,16.35
2023-01-08T10:08:33.614Z,16.22
2023-01-08T10:11:43.548Z,16.83
2023-01-08T10:14:50.135Z,17.19
2023-01-08T10:18:03.427Z,16.66
2023-01-08T10:21:06.217Z,16.30
2023-01-08T10:24:08.395Z,16.66
2023-01-08T10:27:15.748Z,16.86
2023-01-08T10:30:42.274Z,16.68
2023-01-08T10:33:47.761Z,15.66
2023-01-08T10:36:51.936Z,15.74
2023-01-08T10:40:00.050Z,15.61
2023-01-08T10:43:08.737Z,15.78
2023-01-08T10:46:24.528Z,15.84
2023-01-08T10:49:36.060Z,16.24
2023-01-08T10:52:39.117Z,15.94
2023-01-08T10:55:41.288Z,16.24
2023-01-08T10:58:44.169Z,16.22
2023-01-08T11:01:48.738Z,16.82
2023-01-08T11:04:52.344Z,17.23
2023-01-08T11:07:57.620Z,17.09
2023-01-08T11:11:02.260Z,16.70
2023-01-08T11:14:13.747Z,16.58
2023-01-08T11:17:16.999Z,16.52
2023-01-08T11:20:21.107Z,16.68
2023-01-08T11:23:26.967Z,16.36
2023-01-08T11:26:30.146Z,15.47
2023-01-08T11:29:51.726Z,16.05
2023-01-08T11:33:05.044Z,16.19
2023-01-08T11:36:21.160Z,16.51
2023-01-08T11:39:23.806Z,16.58
2023-01-08T11:42:48.246Z,17.04
2023-01-08T11:46:12.564Z,17.19
2023-01-08T11:49:44.539Z,17.24
2023-01-08T11:53:03.818Z,17.28
2023-01-08T11:56:19.964Z,17.70
2023-01-08T11:59:52.393Z,17.74
2023-01-08T12:02:59.255Z,17.92
2023-01-08T12:06:10.646Z,17.75
2023-01-08T12:09:32.869Z,17.99
2023-01-08T12:13:01.356Z,18.15
2023-01-08T12:16:09.825Z,17.03
2023-01-08T12:19:19.576Z,17.34
2023-01-08T12:22:51.820Z,17.99
2023-01-08T12:26:26.352Z,18.30
2023-01-08T12:29:47.868Z,18.42
2023-01-08T12:32:56.065Z,17.48
2023-01-08T12:36:03.928Z,17.91
2023-01-08T12:39:24.245Z,18.28
2023-01-08T12:42:30.000Z,18.37
2023-01-08T12:45:44.138Z,18.32
2023-01-08T12:48:52.056Z,18.37
2023-01-08T12:52:01.730Z,18.36
2023-01-08T12:55:29.847Z,18.45
2023-01-08T12:58:37.636Z,18.04
2023-01-08T13:02:03.002Z,18.16
2023-01-08T13:05:13.050Z,17.58
2023-01-08T13:08:37.252Z,18.10
2023-01-08T13:11:44.300Z,18.05
2023-01-08T13:14:51.629Z,17.34
2023-01-08T13:18:00.593Z,17.86
2023-01-08T13:21:06.395Z,17.77
2023-01-08T13:24:37.503Z,18.02
2023-01-08T13:27:40.374Z,17.82
2023-01-08T13:30:46.694Z,17.91
2023-01-08T13:33:53.098Z,17.43
2023-01-08T13:36:57.036Z,17.07
2023-01-08T13:39:59.281Z,17.03
2023-01-08T13:43:02.777Z,16.42
2023-01-08T13:46:18.465Z,15.46
2023-01-08T13:49:36.564Z,14.69
2023-01-08T13:52:56.929Z,15.03
2023-01-08T13:56:01.757Z,16.02
2023-01-08T13:59:05.933Z,15.95
2023-01-08T14:02:31.501Z,16.11
2023-01-08T14:05:34.956Z,16.44
2023-01-08T14:08:36.945Z,16.82
2023-01-08T14:11:49.385Z,16.69
2023-01-08T14:14:59.689Z,16.52
2023-01-08T14:18:04.197Z,16.48
2023-01-08T14:21:06.517Z,16.66
2023-01-08T14:24:15.931Z,16.76
2023-01-08T14:27:25.106Z,16.56
2023-01-08T14:30:28.308Z,17.03
2023-01-08T14:33:43.178Z,17.23
2023-01-08T14:36:46.954Z,17.30
2023-01-08T14:39:54.269Z,16.96
2023-01-08T14:42:59.255Z,16.86
2023-01-08T14:46:03.937Z,17.10
2023-01-08T14:49:07.259Z,17.03
2023-01-08T14:52:13.259Z,17.02
2023-01-08T14:55:20.036Z,17.09
2023-01-08T14:58:31.117Z,17.31
2023-01-08T15:01:34.253Z,17.38
2023-01-08T15:04:37.160Z,17.53
2023-01-08T15:07:43.253Z,17.43
2023-01-08T15:10:45.523Z,16.84
2023-01-08T15:13:50.083Z,16.94
2023-01-08T15:16:55.342Z,17.20
2023-01-08T15:19:59.504Z,17.40
2023-01-08T15:23:01.826Z,17.44
2023-01-08T15:26:04.766Z,16.96
2023-01-08T15:29:06.947Z,17.20
2023-01-08T15:32:14.490Z,16.86
2023-01-08T15:35:18.762Z,16.65
2023-01-08T15:38:22.267Z,17.03
2023-01-08T15:41:43.253Z,16.82
2023-01-08T15:44:47.180Z,16.72
2023-01-08T15:47:49.559Z,16.75
2023-01-08T15:50:53.621Z,16.86
2023-01-08T15:53:55.954Z,17.21
2023-01-08T15:57:01.711Z,16.99
2023-01-08T16:00:04.166Z,17.24
2023-01-08T16:03:08.020Z,17.19
2023-01-08T16:06:11.325Z,17.47
2023-01-08T16:09:14.095Z,17.55
2023-01-08T16:12:18.259Z,17.50
2023-01-08T16:15:20.940Z,17.74
2023-01-08T16:18:23.448Z,17.82
2023-01-08T16:21:27.397Z,17.53
2023-01-08T16:24:29.589Z,17.51
2023-01-08T16:27:32.853Z,17.55
2023-01-08T16:30:36.661Z,17.45
2023-01-08T16:33:39.906Z,17.45
2023-01-08T16:36:42.335Z,17.43
2023-01-08T16:39:46.062Z,17.33
2023-01-08T16:42:48.209Z,17.40
2023-01-08T16:45:51.583Z,17.34
2023-01-08T16:48:54.530Z,17.24
2023-01-08T16:51:57.201Z,17.13
2023-01-08T16:54:59.303Z,16.97
2023-01-08T16:58:02.293Z,17.20
2023-01-08T17:01:09.768Z,17.17
2023-01-08T17:04:12.578Z,17.51
2023-01-08T17:07:15.107Z,17.63
2023-01-08T17:10:18.322Z,17.51
2023-01-08T17:13:20.384Z,17.20
2023-01-08T17:16:22.807Z,17.61
2023-01-08T17:19:25.043Z,17.77
2023-01-08T17:22:27.921Z,17.82
2023-01-08T17:25:31.064Z,17.89
2023-01-08T17:28:35.751Z,17.84
2023-01-08T17:31:40.805Z,17.73
2023-01-08T17:34:43.650Z,17.84
2023-01-08T17:37:46.408Z,17.88
2023-01-08T17:40:49.257Z,17.88
2023-01-08T17:43:51.369Z,17.89
2023-01-08T17:46:53.860Z,17.92
2023-01-08T17:49:57.694Z,17.92
2023-01-08T17:53:00.458Z,17.91
2023-01-08T17:56:06.144Z,17.92
2023-01-08T17:59:14.868Z,17.92
2023-01-08T18:02:17.578Z,17.89
2023-01-08T18:05:20.080Z,17.91
2023-01-08T18:08:22.484Z,17.92
2023-01-08T18:11:25.960Z,17.88
2023-01-08T18:14:28.440Z,17.88
2023-01-08T18:17:32.564Z,17.81
2023-01-08T18:20:34.911Z,17.85
2023-01-08T18:23:38.172Z,17.73
2023-01-08T18:26:42.296Z,17.86
2023-01-08T18:29:45.359Z,17.89
2023-01-08T18:32:47.328Z,17.86
2023-01-08T18:35:50.183Z,17.89
2023-01-08T18:38:52.366Z,17.88
2023-01-08T18:42:13.948Z,17.91
2023-01-08T18:45:16.724Z,17.95
2023-01-08T18:48:20.369Z,17.95
2023-01-08T18:51:23.923Z,17.88
2023-01-08T18:54:26.652Z,17.89
2023-01-08T18:57:29.161Z,17.89
2023-01-08T19:00:32.455Z,17.89
2023-01-08T19:03:34.876Z,17.89
2023-01-08T19:06:37.863Z,17.88
2023-01-08T19:09:40.099Z,17.88
2023-01-08T19:12:42.698Z,17.85
2023-01-08T19:15:45.819Z,17.91
2023-01-08T19:18:48.627Z,17.86
2023-01-08T19:21:51.553Z,17.91
2023-01-08T19:24:55.474Z,17.84
2023-01-08T19:27:58.039Z,17.85
2023-01-08T19:31:01.562Z,17.73
2023-01-08T19:34:04.873Z,17.82
2023-01-08T19:37:07.477Z,17.82
2023-01-08T19:40:10.215Z,17.89
2023-01-08T19:43:32.426Z,17.86
2023-01-08T19:46:35.854Z,17.88
2023-01-08T19:49:40.554Z,17.85
2023-01-08T19:52:42.655Z,17.88
2023-01-08T19:55:45.639Z,17.86
2023-01-08T19:58:48.939Z,17.86
2023-01-08T20:01:52.360Z,17.85
2023-01-08T20:04:54.547Z,17.91
2023-01-08T20:07:57.228Z,17.91
2023-01-08T20:11:05.984Z,17.99
2023-01-08T20:14:09.008Z,18.05
2023-01-08T20:17:12.047Z,17.98
2023-01-08T20:20:14.533Z,17.95
2023-01-08T20:23:17.499Z,17.89
2023-01-08T20:26:20.991Z,17.84
2023-01-08T20:29:23.004Z,17.84
2023-01-08T20:32:25.807Z,17.85
2023-01-08T20:35:28.827Z,17.88
2023-01-08T20:38:31.445Z,17.85
2023-01-08T20:41:34.401Z,17.86
2023-01-08T20:44:38.310Z,17.88
2023-01-08T20:47:41.029Z,17.85
2023-01-08T20:50:47.182Z,17.88
2023-01-08T20:53:49.410Z,17.82
2023-01-08T20:56:55.498Z,17.85
2023-01-08T20:59:57.743Z,17.82
2023-01-08T21:03:00.389Z,17.82
2023-01-08T21:06:07.145Z,17.82
2023-01-08T21:09:11.414Z,17.64
2023-01-08T21:12:15.450Z,17.78
2023-01-08T21:15:18.164Z,17.81
2023-01-08T21:18:20.368Z,17.82
2023-01-08T21:21:29.054Z,17.65
2023-01-08T21:24:31.167Z,17.67
2023-01-08T21:27:33.918Z,17.81
2023-01-08T21:30:37.056Z,17.57
2023-01-08T21:33:39.908Z,17.54
2023-01-08T21:36:42.395Z,17.00
2023-01-08T21:39:45.286Z,16.60
2023-01-08T21:43:06.090Z,16.55
2023-01-08T21:46:08.988Z,15.91
2023-01-08T21:49:12.121Z,16.29
2023-01-08T21:52:33.963Z,16.24
2023-01-08T21:55:37.450Z,16.21
2023-01-08T21:58:39.690Z,16.51
2023-01-08T22:01:42.014Z,16.77
2023-01-08T22:04:45.679Z,17.02
2023-01-08T22:07:48.077Z,16.19
2023-01-08T22:10:51.092Z,16.25
2023-01-08T22:13:53.542Z,16.60
2023-01-08T22:16:56.125Z,17.00
2023-01-08T22:19:59.214Z,17.20
2023-01-08T22:23:01.992Z,17.31
2023-01-08T22:26:10.675Z,17.44
2023-01-08T22:29:13.374Z,17.68
2023-01-08T22:32:15.541Z,17.86
2023-01-08T22:35:18.140Z,17.74
2023-01-08T22:38:20.587Z,17.81
2023-01-08T22:41:24.712Z,17.73
2023-01-08T22:44:26.831Z,17.60
2023-01-08T22:47:29.930Z,17.79
2023-01-08T22:50:32.097Z,17.51
2023-01-08T22:53:37.256Z,17.77
2023-01-08T22:56:39.975Z,17.96
2023-01-08T22:59:42.805Z,17.89
2023-01-08T23:02:44.929Z,18.06
2023-01-08T23:05:48.094Z,18.02
2023-01-08T23:08:52.495Z,17.98
2023-01-08T23:11:54.846Z,18.13
2023-01-08T23:14:57.364Z,18.25
2023-01-08T23:18:00.043Z,18.36
2023-01-08T23:21:07.098Z,18.37
2023-01-08T23:24:13.846Z,18.21
2023-01-08T23:27:16.251Z,18.40
2023-01-08T23:30:19.611Z,18.45
2023-01-08T23:33:21.895Z,18.39
2023-01-08T23:36:26.328Z,18.45
2023-01-08T23:39:29.728Z,18.30
2023-01-08T23:42:32.854Z,18.46
2023-01-08T23:45:37.643Z,18.50
2023-01-08T23:48:40.607Z,18.57
2023-01-08T23:51:43.468Z,18.59
2023-01-08T23:54:46.345Z,18.61
2023-01-08T23:57:48.710Z,18.69
